createdAt,value
2023-05-02T00:00:21.363Z,0
2023-05-02T00:00:51.374Z,0
2023-05-02T00:01:21.380Z,0
2023-05-02T00:01:51.381Z,0
2023-05-02T00:02:21.407Z,0
2023-05-02T00:02:51.567Z,0
2023-05-02T00:03:21.458Z,0
2023-05-02T00:03:51.443Z,0
2023-05-02T00:04:21.415Z,0
2023-05-02T00:04:51.453Z,0
2023-05-02T00:05:21.429Z,0
2023-05-02T00:05:51.422Z,0
2023-05-02T00:06:21.474Z,0
2023-05-02T00:06:51.523Z,0
2023-05-02T00:07:21.479Z,0
2023-05-02T00:07:51.470Z,0
2023-05-02T00:08:21.454Z,0
2023-05-02T00:08:51.474Z,0
2023-05-02T00:09:21.481Z,0
2023-05-02T00:09:51.480Z,0
2023-05-02T00:10:21.487Z,0
2023-05-02T00:10:51.506Z,0
2023-05-02T00:11:21.496Z,0
2023-05-02T00:11:51.510Z,0
2023-05-02T00:12:21.504Z,0
2023-05-02T00:12:51.523Z,0
2023-05-02T00:13:21.535Z,0
2023-05-02T00:13:51.558Z,0
2023-05-02T00:14:21.559Z,0
2023-05-02T00:14:51.548Z,0
2023-05-02T00:15:21.554Z,0
2023-05-02T00:15:51.561Z,0
2023-05-02T00:16:21.602Z,0
2023-05-02T00:16:51.585Z,0
2023-05-02T00:17:21.710Z,0
2023-05-02T00:17:51.612Z,0
2023-05-02T00:18:21.590Z,0
2023-05-02T00:18:51.598Z,0
2023-05-02T00:19:21.610Z,0
2023-05-02T00:19:51.619Z,0
2023-05-02T00:20:21.674Z,0
2023-05-02T00:20:51.628Z,0
2023-05-02T00:21:21.642Z,0
2023-05-02T00:21:51.662Z,0
2023-05-02T00:22:21.642Z,0
2023-05-02T00:22:51.670Z,0
2023-05-02T00:23:21.660Z,0
2023-05-02T00:23:51.669Z,0
2023-05-02T00:24:21.670Z,0
2023-05-02T00:24:51.683Z,0
2023-05-02T00:25:21.684Z,0
2023-05-02T00:25:51.690Z,0
2023-05-02T00:26:21.705Z,0
2023-05-02T00:26:51.712Z,0
2023-05-02T00:27:21.712Z,0
2023-05-02T00:27:51.726Z,0
2023-05-02T00:28:21.735Z,0
2023-05-02T00:28:51.730Z,0
2023-05-02T00:29:21.736Z,0
2023-05-02T00:29:51.742Z,0
2023-05-02T00:30:21.758Z,0
2023-05-02T00:30:51.775Z,0
2023-05-02T00:31:21.798Z,0
2023-05-02T00:31:51.771Z,0
2023-05-02T00:32:21.787Z,0
2023-05-02T00:32:51.833Z,0
2023-05-02T00:33:21.829Z,0
2023-05-02T00:33:51.793Z,0
2023-05-02T00:34:51.804Z,0
2023-05-02T00:35:21.839Z,0
2023-05-02T00:35:51.845Z,0
2023-05-02T00:36:21.837Z,0
2023-05-02T00:36:51.854Z,0
2023-05-02T00:37:21.844Z,0
2023-05-02T00:37:51.851Z,0
2023-05-02T00:38:21.869Z,0
2023-05-02T00:38:51.886Z,0
2023-05-02T00:39:21.872Z,0
2023-05-02T00:39:51.873Z,0
2023-05-02T00:40:21.896Z,0
2023-05-02T00:40:51.895Z,0
2023-05-02T00:41:21.926Z,0
2023-05-02T00:41:51.902Z,0
2023-05-02T00:42:51.920Z,0
2023-05-02T00:43:21.930Z,0
2023-05-02T00:43:51.925Z,0
2023-05-02T00:44:21.932Z,0
2023-05-02T00:44:51.969Z,0
2023-05-02T00:45:21.952Z,0
2023-05-02T00:45:52.014Z,0
2023-05-02T00:46:21.968Z,0
2023-05-02T00:46:52.007Z,0
2023-05-02T00:47:21.968Z,0
2023-05-02T00:47:52.034Z,0
2023-05-02T00:48:21.996Z,0
2023-05-02T00:48:51.999Z,0
2023-05-02T00:49:21.998Z,0
2023-05-02T00:49:52.015Z,0
2023-05-02T00:50:22.010Z,0
2023-05-02T00:50:52.025Z,0
2023-05-02T00:51:22.032Z,0
2023-05-02T00:51:52.080Z,0
2023-05-02T00:52:22.035Z,0
2023-05-02T00:52:52.064Z,0
2023-05-02T00:53:22.059Z,0
2023-05-02T00:53:52.067Z,0
2023-05-02T00:54:22.071Z,0
2023-05-02T00:54:52.069Z,0
2023-05-02T00:55:22.080Z,0
2023-05-02T00:55:52.096Z,0
2023-05-02T00:56:22.107Z,0
2023-05-02T00:56:52.109Z,0
2023-05-02T00:57:22.112Z,0
2023-05-02T00:57:52.127Z,0
2023-05-02T00:58:22.125Z,0
2023-05-02T00:58:52.136Z,0
2023-05-02T00:59:22.152Z,0
2023-05-02T00:59:52.142Z,0
2023-05-02T01:00:22.144Z,0
2023-05-02T01:00:52.149Z,0
2023-05-02T01:01:22.184Z,0
2023-05-02T01:02:15.174Z,0
2023-05-02T01:02:44.965Z,0
2023-05-02T01:03:14.954Z,0
2023-05-02T01:03:44.991Z,0
2023-05-02T01:04:15.031Z,0
2023-05-02T01:04:44.918Z,0
2023-05-02T01:05:44.951Z,0
2023-05-02T01:06:14.933Z,0
2023-05-02T01:06:45.015Z,0
2023-05-02T01:07:14.940Z,0
2023-05-02T01:07:44.967Z,0
2023-05-02T01:08:14.992Z,0
2023-05-02T01:08:44.976Z,0
2023-05-02T01:09:14.974Z,0
2023-05-02T01:09:44.988Z,0
2023-05-02T01:10:15.026Z,0
2023-05-02T01:10:44.993Z,0
2023-05-02T01:11:45.003Z,0
2023-05-02T01:12:15.017Z,0
2023-05-02T01:12:45.024Z,0
2023-05-02T01:13:15.025Z,0
2023-05-02T01:13:45.034Z,0
2023-05-02T01:14:15.038Z,0
2023-05-02T01:14:45.069Z,0
2023-05-02T01:15:15.062Z,0
2023-05-02T01:15:45.099Z,0
2023-05-02T01:16:15.102Z,0
2023-05-02T01:16:45.093Z,0
2023-05-02T01:17:15.075Z,0
2023-05-02T01:17:45.152Z,0
2023-05-02T01:18:15.099Z,0
2023-05-02T01:18:45.099Z,0
2023-05-02T01:19:15.109Z,0
2023-05-02T01:19:45.113Z,0
2023-05-02T01:20:15.122Z,0
2023-05-02T01:20:45.141Z,0
2023-05-02T01:21:15.126Z,0
2023-05-02T01:21:45.138Z,0
2023-05-02T01:22:15.141Z,0
2023-05-02T01:22:45.155Z,0
2023-05-02T01:23:15.155Z,0
2023-05-02T01:23:45.169Z,0
2023-05-02T01:24:15.172Z,0
2023-05-02T01:24:45.184Z,0
2023-05-02T01:25:15.174Z,0
2023-05-02T01:25:45.191Z,0
2023-05-02T01:26:15.191Z,0
2023-05-02T01:26:45.199Z,0
2023-05-02T01:27:15.214Z,0
2023-05-02T01:27:45.211Z,0
2023-05-02T01:28:15.218Z,0
2023-05-02T01:28:45.235Z,0
2023-05-02T01:29:15.234Z,0
2023-05-02T01:29:45.238Z,0
2023-05-02T01:30:15.248Z,0
2023-05-02T01:30:45.260Z,0
2023-05-02T01:31:15.264Z,0
2023-05-02T01:31:45.298Z,0
2023-05-02T01:32:15.279Z,0
2023-05-02T01:32:45.302Z,0
2023-05-02T01:33:45.296Z,0
2023-05-02T01:34:15.294Z,0
2023-05-02T01:34:45.302Z,0
2023-05-02T01:35:15.315Z,0
2023-05-02T01:35:45.320Z,0
2023-05-02T01:36:15.316Z,0
2023-05-02T01:36:45.348Z,0
2023-05-02T01:37:15.337Z,0
2023-05-02T01:37:45.359Z,0
2023-05-02T01:38:15.346Z,0
2023-05-02T01:38:45.367Z,0
2023-05-02T01:39:15.354Z,0
2023-05-02T01:39:45.376Z,0
2023-05-02T01:40:15.394Z,0
2023-05-02T01:40:45.393Z,0
2023-05-02T01:41:15.381Z,0
2023-05-02T01:41:45.395Z,0
2023-05-02T01:42:15.414Z,0
2023-05-02T01:42:45.414Z,0
2023-05-02T01:43:15.421Z,0
2023-05-02T01:43:45.428Z,0
2023-05-02T01:44:15.424Z,0
2023-05-02T01:44:45.436Z,0
2023-05-02T01:45:15.442Z,0
2023-05-02T01:45:45.437Z,0
2023-05-02T01:46:15.486Z,0
2023-05-02T01:46:45.552Z,0
2023-05-02T01:47:15.623Z,0
2023-05-02T01:47:46.212Z,0
2023-05-02T01:48:15.484Z,0
2023-05-02T01:48:45.493Z,0
2023-05-02T01:49:15.510Z,0
2023-05-02T01:49:45.503Z,0
2023-05-02T01:50:15.519Z,0
2023-05-02T01:50:45.514Z,0
2023-05-02T01:51:15.537Z,0
2023-05-02T01:51:45.530Z,0
2023-05-02T01:52:15.535Z,0
2023-05-02T01:52:45.548Z,0
2023-05-02T01:53:15.550Z,0
2023-05-02T01:53:45.555Z,0
2023-05-02T01:54:15.551Z,0
2023-05-02T01:54:45.570Z,0
2023-05-02T01:55:15.577Z,0
2023-05-02T01:55:45.597Z,0
2023-05-02T01:56:15.592Z,0
2023-05-02T01:56:45.590Z,0
2023-05-02T01:57:15.601Z,0
2023-05-02T01:57:45.606Z,0
2023-05-02T01:58:15.617Z,0
2023-05-02T01:58:45.630Z,0
2023-05-02T01:59:15.618Z,0
2023-05-02T01:59:45.633Z,0
2023-05-02T02:00:15.650Z,0
2023-05-02T02:00:45.706Z,0
2023-05-02T02:01:15.675Z,0
2023-05-02T02:01:45.656Z,0
2023-05-02T02:02:15.688Z,0
2023-05-02T02:02:45.674Z,0
2023-05-02T02:03:15.747Z,0
2023-05-02T02:03:45.704Z,0
2023-05-02T02:04:15.808Z,0
2023-05-02T02:04:45.721Z,0
2023-05-02T02:05:15.704Z,0
2023-05-02T02:05:45.714Z,0
2023-05-02T02:06:15.760Z,0
2023-05-02T02:06:45.758Z,0
2023-05-02T02:07:15.733Z,0
2023-05-02T02:07:45.737Z,0
2023-05-02T02:08:15.741Z,0
2023-05-02T02:08:45.751Z,0
2023-05-02T02:09:15.765Z,0
2023-05-02T02:09:45.762Z,0
2023-05-02T02:10:15.777Z,0
2023-05-02T02:10:45.779Z,0
2023-05-02T02:11:15.782Z,0
2023-05-02T02:11:45.798Z,0
2023-05-02T02:12:15.799Z,0
2023-05-02T02:12:45.798Z,0
2023-05-02T02:13:15.805Z,0
2023-05-02T02:13:45.828Z,0
2023-05-02T02:14:15.821Z,0
2023-05-02T02:14:45.822Z,0
2023-05-02T02:15:15.832Z,0
2023-05-02T02:15:45.851Z,0
2023-05-02T02:16:15.852Z,0
2023-05-02T02:16:45.890Z,0
2023-05-02T02:17:15.872Z,0
2023-05-02T02:17:45.935Z,0
2023-05-02T02:18:15.879Z,0
2023-05-02T02:18:45.875Z,0
2023-05-02T02:19:15.892Z,0
2023-05-02T02:19:45.890Z,0
2023-05-02T02:20:15.897Z,0
2023-05-02T02:20:45.906Z,0
2023-05-02T02:21:15.919Z,0
2023-05-02T02:21:45.921Z,0
2023-05-02T02:22:15.929Z,0
2023-05-02T02:22:45.949Z,0
2023-05-02T02:23:15.942Z,0
2023-05-02T02:23:45.950Z,0
2023-05-02T02:24:15.953Z,0
2023-05-02T02:24:45.995Z,0
2023-05-02T02:25:15.977Z,0
2023-05-02T02:25:45.967Z,0
2023-05-02T02:26:15.965Z,0
2023-05-02T02:26:45.973Z,0
2023-05-02T02:27:15.985Z,0
2023-05-02T02:27:46.006Z,0
2023-05-02T02:28:15.996Z,0
2023-05-02T02:28:46.011Z,0
2023-05-02T02:29:16.015Z,0
2023-05-02T02:29:46.033Z,0
2023-05-02T02:30:16.043Z,0
2023-05-02T02:30:46.053Z,0
2023-05-02T02:31:16.088Z,0
2023-05-02T02:31:46.055Z,0
2023-05-02T02:32:16.051Z,0
2023-05-02T02:32:46.109Z,0
2023-05-02T02:33:16.058Z,0
2023-05-02T02:33:46.074Z,0
2023-05-02T02:34:16.084Z,0
2023-05-02T02:34:46.099Z,0
2023-05-02T02:35:16.088Z,0
2023-05-02T02:35:46.097Z,0
2023-05-02T02:36:16.102Z,0
2023-05-02T02:36:46.110Z,0
2023-05-02T02:37:16.114Z,0
2023-05-02T02:37:46.130Z,0
2023-05-02T02:38:16.125Z,0
2023-05-02T02:38:46.144Z,0
2023-05-02T02:39:16.152Z,0
2023-05-02T02:39:46.149Z,0
2023-05-02T02:40:16.158Z,0
2023-05-02T02:40:46.173Z,0
2023-05-02T02:41:16.180Z,0
2023-05-02T02:41:46.184Z,0
2023-05-02T02:42:16.186Z,0
2023-05-02T02:42:46.192Z,0
2023-05-02T02:43:16.199Z,0
2023-05-02T02:43:46.214Z,0
2023-05-02T02:44:16.209Z,0
2023-05-02T02:44:46.220Z,0
2023-05-02T02:45:16.230Z,0
2023-05-02T02:45:46.320Z,0
2023-05-02T02:46:16.270Z,0
2023-05-02T02:46:46.338Z,0
2023-05-02T02:47:16.252Z,0
2023-05-02T02:47:46.394Z,0
2023-05-02T02:48:16.319Z,0
2023-05-02T02:48:46.267Z,0
2023-05-02T02:49:16.272Z,0
2023-05-02T02:49:46.291Z,0
2023-05-02T02:50:16.289Z,0
2023-05-02T02:50:46.298Z,0
2023-05-02T02:51:16.308Z,0
2023-05-02T02:51:46.333Z,0
2023-05-02T02:52:16.312Z,0
2023-05-02T02:52:46.319Z,0
2023-05-02T02:53:16.335Z,0
2023-05-02T02:53:46.334Z,0
2023-05-02T02:54:26.310Z,0
2023-05-02T02:54:46.345Z,0
2023-05-02T02:55:16.358Z,0
2023-05-02T02:55:46.369Z,0
2023-05-02T02:56:16.371Z,0
2023-05-02T02:56:46.376Z,0
2023-05-02T02:57:16.383Z,0
2023-05-02T02:57:46.398Z,0
2023-05-02T02:58:16.393Z,0
2023-05-02T02:58:46.414Z,0
2023-05-02T02:59:16.407Z,0
2023-05-02T02:59:46.423Z,0
2023-05-02T03:00:16.420Z,0
2023-05-02T03:00:46.430Z,0
2023-05-02T03:01:16.424Z,0
2023-05-02T03:01:46.490Z,0
2023-05-02T03:02:16.457Z,0
2023-05-02T03:02:46.471Z,0
2023-05-02T03:03:16.506Z,0
2023-05-02T03:03:46.484Z,0
2023-05-02T03:04:16.527Z,0
2023-05-02T03:04:46.491Z,0
2023-05-02T03:05:16.488Z,0
2023-05-02T03:05:46.490Z,0
2023-05-02T03:06:16.512Z,0
2023-05-02T03:06:46.598Z,0
2023-05-02T03:07:16.504Z,0
2023-05-02T03:07:46.531Z,0
2023-05-02T03:08:16.530Z,0
2023-05-02T03:08:46.537Z,0
2023-05-02T03:09:16.542Z,0
2023-05-02T03:09:46.549Z,0
2023-05-02T03:10:16.558Z,0
2023-05-02T03:10:46.555Z,0
2023-05-02T03:11:16.565Z,0
2023-05-02T03:11:46.572Z,0
2023-05-02T03:12:16.575Z,0
2023-05-02T03:12:46.584Z,0
2023-05-02T03:13:16.581Z,0
2023-05-02T03:13:46.595Z,0
2023-05-02T03:14:16.619Z,0
2023-05-02T03:14:46.610Z,0
2023-05-02T03:15:16.618Z,0
2023-05-02T03:15:46.636Z,0
2023-05-02T03:16:16.645Z,0
2023-05-02T03:16:46.635Z,0
2023-05-02T03:17:16.641Z,0
2023-05-02T03:17:46.674Z,0
2023-05-02T03:18:16.672Z,0
2023-05-02T03:18:46.689Z,0
2023-05-02T03:19:16.665Z,0
2023-05-02T03:19:46.672Z,0
2023-05-02T03:20:16.691Z,0
2023-05-02T03:20:46.687Z,0
2023-05-02T03:21:16.705Z,0
2023-05-02T03:21:46.698Z,0
2023-05-02T03:22:16.730Z,0
2023-05-02T03:22:46.724Z,0
2023-05-02T03:23:16.714Z,0
2023-05-02T03:23:46.736Z,0
2023-05-02T03:24:18.493Z,0
2023-05-02T03:24:46.744Z,0
2023-05-02T03:25:16.785Z,0
2023-05-02T03:25:46.753Z,0
2023-05-02T03:26:16.764Z,0
2023-05-02T03:26:46.766Z,0
2023-05-02T03:27:16.776Z,0
2023-05-02T03:27:46.782Z,0
2023-05-02T03:28:16.783Z,0
2023-05-02T03:28:46.839Z,0
2023-05-02T03:29:16.800Z,0
2023-05-02T03:29:46.819Z,0
2023-05-02T03:30:16.817Z,0
2023-05-02T03:30:46.817Z,0
2023-05-02T03:31:16.896Z,0
2023-05-02T03:31:46.835Z,0
2023-05-02T03:32:16.840Z,0
2023-05-02T03:32:46.872Z,0
2023-05-02T03:33:16.928Z,0
2023-05-02T03:33:46.863Z,0
2023-05-02T03:34:16.859Z,0
2023-05-02T03:34:46.879Z,0
2023-05-02T03:35:16.870Z,0
2023-05-02T03:35:46.890Z,0
2023-05-02T03:36:16.889Z,0
2023-05-02T03:36:46.906Z,0
2023-05-02T03:37:16.907Z,0
2023-05-02T03:37:46.916Z,0
2023-05-02T03:38:16.910Z,0
2023-05-02T03:38:46.938Z,0
2023-05-02T03:39:16.930Z,0
2023-05-02T03:39:46.943Z,0
2023-05-02T03:40:16.940Z,0
2023-05-02T03:40:46.956Z,0
2023-05-02T03:41:16.963Z,0
2023-05-02T03:41:47.488Z,0
2023-05-02T03:42:16.993Z,0
2023-05-02T03:42:46.981Z,0
2023-05-02T03:43:16.982Z,0
2023-05-02T03:43:47.004Z,0.52
2023-05-02T03:44:17.005Z,0.42
2023-05-02T03:44:47.001Z,0.77
2023-05-02T03:45:17.007Z,0.83
2023-05-02T03:45:48.637Z,0.63
2023-05-02T03:46:17.040Z,0.98
2023-05-02T03:46:27.135Z,1.03
2023-05-02T03:46:47.087Z,1.1
2023-05-02T03:46:54.108Z,2.52
2023-05-02T03:47:17.032Z,1.28
2023-05-02T03:47:19.111Z,2.11
2023-05-02T03:47:36.100Z,2.24
2023-05-02T03:47:47.081Z,1.74
2023-05-02T03:47:55.179Z,0.67
2023-05-02T03:48:17.051Z,1.07
2023-05-02T03:48:47.066Z,2.48
2023-05-02T03:49:07.090Z,0.89
2023-05-02T03:49:17.062Z,1.11
2023-05-02T03:49:39.103Z,2.22
2023-05-02T03:49:47.070Z,1.51
2023-05-02T03:50:09.095Z,2.14
2023-05-02T03:50:17.088Z,1.57
2023-05-02T03:50:42.099Z,1.96
2023-05-02T03:50:47.081Z,1.46
2023-05-02T03:51:12.100Z,3.11
2023-05-02T03:51:17.252Z,1.47
2023-05-02T03:51:42.207Z,3.66
2023-05-02T03:51:47.098Z,4.09
2023-05-02T03:52:17.103Z,4.98
2023-05-02T03:52:17.283Z,4.98
2023-05-02T03:52:46.102Z,5.15
2023-05-02T03:52:47.203Z,5.15
2023-05-02T03:53:17.127Z,4.54
2023-05-02T03:53:21.102Z,3.82
2023-05-02T03:53:47.141Z,2.84
2023-05-02T03:54:17.104Z,2.89
2023-05-02T03:54:17.281Z,2.89
2023-05-02T03:54:47.140Z,2.57
2023-05-02T03:54:51.107Z,3.99
2023-05-02T03:55:17.147Z,3.9
2023-05-02T03:55:21.102Z,2.13
2023-05-02T03:55:27.106Z,3.79
2023-05-02T03:55:47.154Z,2.64
2023-05-02T03:55:55.112Z,3.66
2023-05-02T03:56:17.157Z,4.96
2023-05-02T03:56:30.109Z,2.36
2023-05-02T03:56:47.168Z,2.31
2023-05-02T03:56:57.106Z,2.53
2023-05-02T03:57:17.175Z,2.6
2023-05-02T03:57:27.107Z,3.4
2023-05-02T03:57:40.113Z,2.32
2023-05-02T03:57:47.175Z,3.52
2023-05-02T03:58:01.113Z,4.76
2023-05-02T03:58:17.184Z,2.93
2023-05-02T03:58:36.121Z,2.57
2023-05-02T03:58:42.112Z,4.51
2023-05-02T03:58:47.220Z,4.38
2023-05-02T03:59:06.114Z,4.74
2023-05-02T03:59:17.198Z,3.41
2023-05-02T03:59:42.114Z,2.32
2023-05-02T04:00:07.119Z,3.57
2023-05-02T04:00:17.225Z,3.58
2023-05-02T04:00:47.221Z,3.41
2023-05-02T04:00:51.116Z,2.46
2023-05-02T04:01:10.112Z,2.74
2023-05-02T04:01:17.247Z,5.11
2023-05-02T04:01:47.256Z,2.56
2023-05-02T04:01:55.143Z,3.88
2023-05-02T04:02:17.325Z,3.52
2023-05-02T04:02:47.397Z,3.97
2023-05-02T04:02:58.185Z,4.55
2023-05-02T04:03:17.289Z,2.54
2023-05-02T04:03:24.245Z,4.56
2023-05-02T04:03:47.331Z,4.65
2023-05-02T04:03:48.182Z,5.96
2023-05-02T04:04:17.276Z,4.13
2023-05-02T04:04:39.241Z,5.29
2023-05-02T04:04:47.623Z,4.16
2023-05-02T04:04:58.124Z,5.23
2023-05-02T04:05:04.135Z,3.86
2023-05-02T04:05:17.296Z,4.17
2023-05-02T04:05:47.299Z,5.55
2023-05-02T04:06:17.316Z,5.81
2023-05-02T04:06:47.374Z,5.96
2023-05-02T04:07:17.313Z,6.26
2023-05-02T04:07:47.326Z,6.44
2023-05-02T04:08:17.329Z,6.69
2023-05-02T04:08:34.128Z,7.56
2023-05-02T04:08:47.334Z,6.93
2023-05-02T04:09:17.350Z,7.23
2023-05-02T04:09:47.360Z,8.19
2023-05-02T04:09:48.162Z,5.32
2023-05-02T04:10:17.353Z,6.45
2023-05-02T04:10:47.374Z,8.32
2023-05-02T04:11:17.366Z,8.47
2023-05-02T04:11:47.380Z,8.84
2023-05-02T04:11:51.132Z,8.94
2023-05-02T04:12:17.388Z,9.19
2023-05-02T04:12:18.140Z,9.13
2023-05-02T04:12:47.394Z,9.38
2023-05-02T04:13:17.392Z,9.52
2023-05-02T04:13:33.145Z,7.94
2023-05-02T04:13:47.401Z,9.97
2023-05-02T04:14:17.421Z,9.78
2023-05-02T04:14:47.422Z,10.37
2023-05-02T04:15:16.143Z,10.86
2023-05-02T04:15:17.418Z,10.86
2023-05-02T04:15:21.153Z,9.79
2023-05-02T04:15:47.475Z,9.63
2023-05-02T04:16:17.461Z,9.66
2023-05-02T04:16:40.183Z,7.79
2023-05-02T04:17:17.472Z,8.09
2023-05-02T04:17:47.495Z,8.43
2023-05-02T04:18:17.486Z,8.36
2023-05-02T04:18:47.471Z,8.33
2023-05-02T04:19:17.476Z,8.44
2023-05-02T04:19:47.490Z,8.57
2023-05-02T04:19:54.150Z,8.83
2023-05-02T04:20:17.488Z,8.39
2023-05-02T04:20:47.502Z,8.57
2023-05-02T04:21:17.507Z,8.5
2023-05-02T04:21:47.519Z,8.75
2023-05-02T04:22:17.527Z,8.54
2023-05-02T04:22:47.529Z,8.33
2023-05-02T04:23:17.575Z,8.38
2023-05-02T04:23:47.555Z,8.36
2023-05-02T04:24:17.563Z,8.35
2023-05-02T04:24:47.554Z,8.57
2023-05-02T04:25:17.570Z,8.7
2023-05-02T04:25:47.568Z,8.86
2023-05-02T04:26:17.577Z,8.83
2023-05-02T04:26:47.592Z,8.8
2023-05-02T04:27:17.593Z,9.57
2023-05-02T04:27:47.606Z,8.93
2023-05-02T04:28:17.604Z,9.2
2023-05-02T04:28:22.178Z,10.33
2023-05-02T04:28:47.622Z,9.37
2023-05-02T04:29:17.612Z,9.51
2023-05-02T04:29:31.193Z,10.42
2023-05-02T04:29:47.629Z,9.6
2023-05-02T04:30:17.632Z,10.24
2023-05-02T04:30:47.695Z,9.8
2023-05-02T04:31:09.223Z,11.23
2023-05-02T04:31:16.293Z,9.75
2023-05-02T04:31:17.652Z,9.75
2023-05-02T04:32:13.182Z,11.49
2023-05-02T04:32:17.653Z,10.01
2023-05-02T04:32:19.167Z,10.15
2023-05-02T04:33:12.217Z,11.2
2023-05-02T04:33:17.710Z,11.91
2023-05-02T04:33:21.177Z,10.07
2023-05-02T04:34:17.691Z,10.46
2023-05-02T04:34:28.170Z,12.01
2023-05-02T04:35:17.691Z,11.17
2023-05-02T04:35:25.204Z,12.27
2023-05-02T04:35:30.182Z,11.22
2023-05-02T04:36:17.710Z,11.34
2023-05-02T04:36:29.186Z,11.3
2023-05-02T04:36:43.183Z,12.86
2023-05-02T04:37:17.724Z,12.06
2023-05-02T04:37:33.184Z,12.99
2023-05-02T04:37:47.738Z,11.97
2023-05-02T04:38:17.765Z,12.59
2023-05-02T04:38:33.187Z,7.72
2023-05-02T04:38:47.737Z,13.7
2023-05-02T04:38:55.196Z,14.79
2023-05-02T04:39:17.755Z,14.44
2023-05-02T04:39:47.760Z,14.26
2023-05-02T04:40:00.481Z,10.87
2023-05-02T04:40:17.771Z,16.75
2023-05-02T04:40:39.203Z,16.86
2023-05-02T04:40:47.784Z,16.76
2023-05-02T04:41:17.774Z,17.13
2023-05-02T04:41:47.790Z,17.31
2023-05-02T04:42:17.791Z,17.51
2023-05-02T04:42:33.204Z,17.96
2023-05-02T04:42:47.802Z,17.9
2023-05-02T04:43:17.809Z,18.01
2023-05-02T04:43:47.835Z,17.95
2023-05-02T04:44:17.832Z,18.58
2023-05-02T04:44:33.200Z,15.87
2023-05-02T04:44:49.195Z,18.97
2023-05-02T04:45:17.833Z,18.97
2023-05-02T04:45:47.881Z,19.47
2023-05-02T04:46:10.223Z,16.52
2023-05-02T04:46:17.891Z,19.67
2023-05-02T04:46:47.868Z,19.87
2023-05-02T04:47:17.869Z,20.22
2023-05-02T04:47:25.240Z,20.37
2023-05-02T04:47:47.912Z,20.52
2023-05-02T04:48:17.896Z,20.95
2023-05-02T04:48:47.895Z,21.21
2023-05-02T04:49:10.877Z,21.51
2023-05-02T04:49:17.891Z,21.51
2023-05-02T04:49:47.917Z,21.79
2023-05-02T04:50:17.907Z,22.11
2023-05-02T04:50:42.219Z,22.64
2023-05-02T04:51:17.922Z,22.48
2023-05-02T04:51:47.922Z,22.83
2023-05-02T04:52:17.932Z,23.17
2023-05-02T04:52:47.965Z,23.46
2023-05-02T04:53:09.233Z,18.66
2023-05-02T04:53:14.216Z,23.83
2023-05-02T04:53:17.961Z,24.04
2023-05-02T04:53:47.963Z,23.84
2023-05-02T04:54:17.958Z,24.08
2023-05-02T04:54:47.969Z,24.16
2023-05-02T04:55:17.973Z,24.64
2023-05-02T04:55:43.217Z,25.16
2023-05-02T04:55:47.977Z,25.33
2023-05-02T04:56:17.989Z,25.66
2023-05-02T04:56:47.997Z,25.54
2023-05-02T04:57:18.000Z,25.85
2023-05-02T04:57:28.222Z,26.51
2023-05-02T04:57:48.006Z,26.24
2023-05-02T04:58:18.002Z,27.49
2023-05-02T04:58:48.020Z,27.32
2023-05-02T04:59:07.240Z,27.94
2023-05-02T04:59:18.031Z,27.97
2023-05-02T04:59:49.252Z,29.05
2023-05-02T05:00:18.049Z,30.2
2023-05-02T05:00:48.044Z,31.25
2023-05-02T05:01:09.253Z,32.13
2023-05-02T05:01:18.100Z,32.23
2023-05-02T05:01:48.097Z,33.24
2023-05-02T05:02:18.171Z,34.03
2023-05-02T05:02:48.116Z,34.96
2023-05-02T05:03:04.275Z,35.76
2023-05-02T05:03:18.155Z,36.06
2023-05-02T05:03:48.217Z,36.64
2023-05-02T05:03:54.318Z,37.71
2023-05-02T05:04:18.181Z,38.13
2023-05-02T05:04:48.127Z,38.54
2023-05-02T05:04:57.284Z,26.15
2023-05-02T05:05:18.154Z,37.55
2023-05-02T05:05:36.269Z,40.95
2023-05-02T05:06:18.166Z,39.93
2023-05-02T05:06:48.195Z,40.41
2023-05-02T05:07:18.152Z,40.95
2023-05-02T05:07:48.150Z,40.96
2023-05-02T05:08:18.160Z,41.4
2023-05-02T05:08:48.177Z,41.3
2023-05-02T05:09:13.250Z,41.63
2023-05-02T05:09:18.166Z,41.29
2023-05-02T05:09:48.182Z,41.43
2023-05-02T05:10:18.175Z,43.52
2023-05-02T05:10:25.251Z,41.56
2023-05-02T05:10:48.200Z,42.86
2023-05-02T05:11:18.198Z,42.26
2023-05-02T05:11:48.211Z,43.29
2023-05-02T05:12:18.212Z,43.18
2023-05-02T05:12:48.222Z,43.7
2023-05-02T05:13:18.227Z,44.47
2023-05-02T05:13:24.248Z,45.54
2023-05-02T05:13:48.231Z,44.58
2023-05-02T05:14:00.270Z,45.23
2023-05-02T05:14:18.237Z,45.59
2023-05-02T05:14:21.248Z,27.12
2023-05-02T05:14:27.271Z,47.61
2023-05-02T05:14:48.255Z,46.05
2023-05-02T05:15:18.250Z,46.03
2023-05-02T05:15:37.260Z,41.88
2023-05-02T05:15:48.301Z,47.73
2023-05-02T05:16:18.319Z,46.82
2023-05-02T05:16:48.292Z,47.58
2023-05-02T05:17:18.306Z,48.5
2023-05-02T05:17:48.302Z,48.93
2023-05-02T05:18:36.267Z,36.91
2023-05-02T05:18:48.297Z,49.61
2023-05-02T05:19:07.271Z,46.4
2023-05-02T05:19:40.264Z,37.13
2023-05-02T05:19:48.315Z,20.75
2023-05-02T05:20:48.354Z,58.96
2023-05-02T05:20:55.272Z,57.23
2023-05-02T05:21:11.274Z,36.02
2023-05-02T05:21:48.374Z,36.58
2023-05-02T05:21:57.264Z,57.96
2023-05-02T05:22:15.272Z,51.95
2023-05-02T05:23:18.378Z,46.19
2023-05-02T05:23:48.384Z,46.43
2023-05-02T05:24:18.396Z,46.65
2023-05-02T05:24:48.402Z,49.25
2023-05-02T05:24:51.282Z,49.94
2023-05-02T05:25:18.401Z,48.8
2023-05-02T05:25:48.408Z,46.3
2023-05-02T05:26:18.418Z,47.6
2023-05-02T05:26:48.294Z,44.93
2023-05-02T05:26:48.850Z,44.93
2023-05-02T05:27:18.482Z,50.16
2023-05-02T05:27:48.484Z,47.95
2023-05-02T05:28:18.438Z,47.51
2023-05-02T05:28:48.494Z,47.88
2023-05-02T05:29:18.510Z,48.14
2023-05-02T05:29:48.481Z,49.13
2023-05-02T05:29:58.458Z,29.74
2023-05-02T05:30:18.466Z,52.64
2023-05-02T05:30:48.508Z,55.39
2023-05-02T05:31:02.325Z,45.92
2023-05-02T05:31:18.514Z,47.96
2023-05-02T05:31:23.295Z,34.8
2023-05-02T05:31:48.506Z,29.79
2023-05-02T05:31:51.322Z,45.12
2023-05-02T05:32:03.336Z,44.77
2023-05-02T05:32:18.494Z,34.72
2023-05-02T05:32:25.315Z,25.42
2023-05-02T05:32:48.580Z,53.28
2023-05-02T05:32:57.301Z,28.81
2023-05-02T05:33:18.650Z,52.94
2023-05-02T05:33:26.329Z,53.1
2023-05-02T05:33:48.554Z,52.06
2023-05-02T05:34:03.361Z,33.76
2023-05-02T05:34:18.599Z,51.45
2023-05-02T05:34:31.298Z,50.48
2023-05-02T05:34:36.305Z,46.48
2023-05-02T05:34:48.521Z,52.78
2023-05-02T05:35:18.527Z,50.86
2023-05-02T05:35:48.574Z,50.69
2023-05-02T05:36:18.297Z,49.8
2023-05-02T05:36:18.541Z,49.8
2023-05-02T05:36:48.564Z,49.71
2023-05-02T05:37:18.615Z,49.07
2023-05-02T05:37:37.294Z,39.35
2023-05-02T05:37:48.558Z,51.41
2023-05-02T05:38:18.305Z,34.59
2023-05-02T05:38:18.576Z,34.59
2023-05-02T05:38:48.593Z,48.76
2023-05-02T05:39:18.581Z,49.17
2023-05-02T05:39:39.302Z,53.22
2023-05-02T05:39:48.594Z,53.26
2023-05-02T05:40:00.652Z,50.59
2023-05-02T05:40:12.305Z,53.48
2023-05-02T05:40:18.608Z,58.93
2023-05-02T05:40:48.617Z,64.11
2023-05-02T05:41:16.305Z,58.2
2023-05-02T05:41:18.610Z,58.63
2023-05-02T05:41:22.353Z,34.75
2023-05-02T05:41:48.618Z,28.81
2023-05-02T05:41:51.300Z,53.88
2023-05-02T05:42:10.308Z,48.64
2023-05-02T05:42:16.310Z,55.5
2023-05-02T05:42:18.625Z,57.04
2023-05-02T05:42:48.625Z,89.09
2023-05-02T05:42:51.313Z,85.66
2023-05-02T05:43:14.305Z,62.07
2023-05-02T05:43:18.639Z,62.22
2023-05-02T05:43:25.308Z,33.28
2023-05-02T05:43:48.643Z,54.25
2023-05-02T05:43:55.324Z,35
2023-05-02T05:44:17.322Z,47.37
2023-05-02T05:44:18.654Z,48.3
2023-05-02T05:44:29.312Z,31.54
2023-05-02T05:44:48.663Z,53.42
2023-05-02T05:44:55.325Z,8.83
2023-05-02T05:45:19.658Z,41.76
2023-05-02T05:45:21.321Z,53.84
2023-05-02T05:45:33.318Z,64.88
2023-05-02T05:45:48.675Z,70.52
2023-05-02T05:45:58.312Z,49.02
2023-05-02T05:46:24.410Z,46.49
2023-05-02T05:46:30.352Z,59.39
2023-05-02T05:46:36.321Z,37.73
2023-05-02T05:46:48.733Z,74.75
2023-05-02T05:47:01.358Z,58.79
2023-05-02T05:47:25.385Z,108.21
2023-05-02T05:47:31.413Z,101.09
2023-05-02T05:47:37.577Z,83.64
2023-05-02T05:47:48.714Z,92.63
2023-05-02T05:48:28.345Z,118.48
2023-05-02T05:48:36.321Z,99.68
2023-05-02T05:48:42.327Z,111.1
2023-05-02T05:48:48.727Z,109.46
2023-05-02T05:49:07.331Z,70.5
2023-05-02T05:49:30.322Z,115.7
2023-05-02T05:49:40.323Z,142.87
2023-05-02T05:49:48.732Z,150.18
2023-05-02T05:50:42.339Z,109.28
2023-05-02T05:50:48.326Z,120.34
2023-05-02T05:50:48.742Z,120.34
2023-05-02T05:51:12.322Z,155.4
2023-05-02T05:51:48.771Z,158.26
2023-05-02T05:52:18.755Z,162.87
2023-05-02T05:52:48.772Z,163.12
2023-05-02T05:53:05.366Z,163.6
2023-05-02T05:53:18.814Z,165.86
2023-05-02T05:53:48.786Z,167.75
2023-05-02T05:54:18.835Z,166.63
2023-05-02T05:54:48.806Z,170.18
2023-05-02T05:55:18.815Z,172.79
2023-05-02T05:55:48.817Z,173.44
2023-05-02T05:56:18.814Z,173.3
2023-05-02T05:56:48.828Z,175.04
2023-05-02T05:57:18.841Z,177.41
2023-05-02T05:57:48.850Z,177.43
2023-05-02T05:58:18.844Z,179.25